Time,TemperatureF,DewpointF,PressureIn,WindDirection,WindDirectionDegrees,WindSpeedMPH,WindSpeedGustMPH,Humidity,HourlyPrecipIn,Conditions,Clouds,dailyrainin,SoftwareType,DateUTC
2013-07-22 00:00:00,69.4,67.3,29.87,WSW,245,0.0,-999.0,93,0.00,,,0.00,Wunderground v.1.15,2013-07-22 04:00:00,
2013-07-22 00:01:00,69.4,67.3,29.87,WSW,245,0.0,-999.0,93,0.00,,,0.00,Wunderground v.1.15,2013-07-22 04:01:00,
2013-07-22 00:03:00,69.3,67.2,29.87,WSW,245,0.0,-999.0,93,0.00,,,0.00,Wunderground v.1.15,2013-07-22 04:03:00,
2013-07-22 00:05:00,69.2,67.1,29.87,WSW,245,0.0,-999.0,93,0.00,,,0.00,Wunderground v.1.15,2013-07-22 04:05:00,
2013-07-22 00:08:00,69.1,67.0,29.87,WSW,245,0.0,-999.0,93,0.00,,,0.00,Wunderground v.1.15,2013-07-22 04:08:00,
2013-07-22 00:12:00,69.0,66.9,29.87,WSW,245,0.0,-999.0,93,0.00,,,0.00,Wunderground v.1.15,2013-07-22 04:12:00,
2013-07-22 00:18:00,68.8,66.7,29.87,WSW,245,0.0,-999.0,93,0.00,,,0.00,Wunderground v.1.15,2013-07-22 04:18:00,
2013-07-22 00:24:00,68.7,66.6,29.87,WSW,245,0.0,-999.0,93,0.00,,,0.00,Wunderground v.1.15,2013-07-22 04:24:00,
2013-07-22 00:30:00,68.5,66.4,29.86,WSW,245,0.0,-999.0,93,0.00,,,0.00,Wunderground v.1.15,2013-07-22 04:30:00,
2013-07-22 00:36:00,68.4,66.3,29.86,WSW,245,0.0,-999.0,93,0.00,,,0.00,Wunderground v.1.15,2013-07-22 04:36:00,
2013-07-22 00:42:00,68.4,66.3,29.86,WSW,245,0.0,-999.0,93,0.00,,,0.00,Wunderground v.1.15,2013-07-22 04:42:00,
2013-07-22 00:48:00,68.4,66.3,29.86,WSW,245,0.0,-999.0,93,0.00,,,0.00,Wunderground v.1.15,2013-07-22 04:48:00,
2013-07-22 00:54:00,68.5,66.4,29.86,WSW,245,0.0,-999.0,93,0.00,,,0.00,Wunderground v.1.15,2013-07-22 04:54:00,
2013-07-22 00:59:00,68.5,66.7,29.86,WSW,245,0.0,-999.0,94,0.00,,,0.00,Wunderground v.1.15,2013-07-22 04:59:00,
2013-07-22 01:05:00,68.5,66.7,29.86,WSW,245,0.0,-999.0,94,0.00,,,0.00,Wunderground v.1.15,2013-07-22 05:05:00,
2013-07-22 01:11:00,68.5,66.7,29.86,WSW,245,0.0,-999.0,94,0.00,,,0.00,Wunderground v.1.15,2013-07-22 05:11:00,
2013-07-22 01:17:00,68.5,66.7,29.86,WSW,245,0.0,-999.0,94,0.00,,,0.00,Wunderground v.1.15,2013-07-22 05:17:00,
2013-07-22 01:23:00,68.5,66.7,29.86,WSW,245,0.0,-999.0,94,0.00,,,0.00,Wunderground v.1.15,2013-07-22 05:23:00,
2013-07-22 01:29:00,68.5,66.7,29.86,WSW,245,0.0,-999.0,94,0.00,,,0.00,Wunderground v.1.15,2013-07-22 05:29:00,
2013-07-22 01:35:00,68.5,66.7,29.86,WSW,245,0.0,-999.0,94,0.00,,,0.00,Wunderground v.1.15,2013-07-22 05:35:00,
2013-07-22 01:41:00,68.5,66.7,29.85,WSW,245,0.0,-999.0,94,0.00,,,0.00,Wunderground v.1.15,2013-07-22 05:41:00,
2013-07-22 01:46:00,68.6,66.8,29.85,WSW,245,0.0,-999.0,94,0.00,,,0.00,Wunderground v.1.15,2013-07-22 05:46:00,
2013-07-22 01:52:00,68.5,66.7,29.85,WSW,245,0.0,-999.0,94,0.00,,,0.00,Wunderground v.1.15,2013-07-22 05:52:00,
2013-07-22 01:58:00,68.5,66.7,29.85,WSW,245,0.0,-999.0,94,0.00,,,0.00,Wunderground v.1.15,2013-07-22 05:58:00,
2013-07-22 02:04:00,68.6,66.8,29.85,WSW,245,0.0,-999.0,94,0.00,,,0.00,Wunderground v.1.15,2013-07-22 06:04:00,
2013-07-22 02:10:00,68.6,66.8,29.85,WSW,245,0.0,-999.0,94,0.00,,,0.00,Wunderground v.1.15,2013-07-22 06:10:00,
2013-07-22 02:16:00,68.5,66.7,29.84,WSW,245,0.0,-999.0,94,0.00,,,0.00,Wunderground v.1.15,2013-07-22 06:16:00,
2013-07-22 02:22:00,68.5,66.7,29.84,WSW,245,0.0,-999.0,94,0.00,,,0.00,Wunderground v.1.15,2013-07-22 06:22:00,
2013-07-22 02:27:00,68.5,66.7,29.84,WSW,245,0.0,-999.0,94,0.00,,,0.00,Wunderground v.1.15,2013-07-22 06:27:00,
2013-07-22 02:33:00,68.4,66.6,29.84,WSW,245,0.0,-999.0,94,0.00,,,0.00,Wunderground v.1.15,2013-07-22 06:33:00,
2013-07-22 02:39:00,68.3,66.5,29.84,WSW,245,0.0,-999.0,94,0.00,,,0.00,Wunderground v.1.15,2013-07-22 06:39:00,
2013-07-22 02:45:00,68.2,66.4,29.83,WSW,245,0.0,-999.0,94,0.00,,,0.00,Wunderground v.1.15,2013-07-22 06:45:00,
2013-07-22 02:51:00,68.2,66.4,29.83,WSW,245,0.0,-999.0,94,0.00,,,0.00,Wunderground v.1.15,2013-07-22 06:51:00,
2013-07-22 02:57:00,68.3,66.5,29.83,WSW,245,0.0,-999.0,94,0.00,,,0.00,Wunderground v.1.15,2013-07-22 06:57:00,
2013-07-22 03:03:00,68.2,66.4,29.83,WSW,245,0.0,-999.0,94,0.00,,,0.00,Wunderground v.1.15,2013-07-22 07:03:00,
2013-07-22 03:08:00,68.2,66.4,29.83,WSW,245,0.0,-999.0,94,0.00,,,0.00,Wunderground v.1.15,2013-07-22 07:08:00,
2013-07-22 03:14:00,68.1,66.3,29.83,WSW,245,0.0,-999.0,94,0.00,,,0.00,Wunderground v.1.15,2013-07-22 07:14:00,
2013-07-22 03:20:00,68.1,66.3,29.82,WSW,245,0.0,-999.0,94,0.00,,,0.00,Wunderground v.1.15,2013-07-22 07:20:00,
2013-07-22 03:26:00,68.1,66.3,29.82,WSW,245,0.0,-999.0,94,0.00,,,0.00,Wunderground v.1.15,2013-07-22 07:26:00,
2013-07-22 03:32:00,68.1,66.3,29.82,WSW,245,0.0,-999.0,94,0.00,,,0.00,Wunderground v.1.15,2013-07-22 07:32:00,
2013-07-22 03:38:00,68.1,66.3,29.82,WSW,245,0.0,-999.0,94,0.00,,,0.00,Wunderground v.1.15,2013-07-22 07:38:00,
2013-07-22 03:44:00,68.0,66.2,29.81,WSW,245,0.0,-999.0,94,0.00,,,0.00,Wunderground v.1.15,2013-07-22 07:44:00,
2013-07-22 03:49:00,68.0,66.2,29.81,WSW,245,0.0,-999.0,94,0.00,,,0.00,Wunderground v.1.15,2013-07-22 07:49:00,
2013-07-22 03:55:00,67.9,66.1,29.81,WSW,245,0.0,-999.0,94,0.00,,,0.00,Wunderground v.1.15,2013-07-22 07:55:00,
2013-07-22 04:01:00,67.7,65.9,29.81,WSW,245,0.0,-999.0,94,0.00,,,0.00,Wunderground v.1.15,2013-07-22 08:01:00,
2013-07-22 04:07:00,67.6,65.8,29.81,WSW,245,0.0,-999.0,94,0.00,,,0.00,Wunderground v.1.15,2013-07-22 08:07:00,
2013-07-22 04:13:00,67.3,65.5,29.81,WSW,245,0.0,-999.0,94,0.00,,,0.00,Wunderground v.1.15,2013-07-22 08:13:00,
2013-07-22 04:19:00,67.2,65.4,29.82,WSW,245,0.0,-999.0,94,0.00,,,0.00,Wunderground v.1.15,2013-07-22 08:19:00,
2013-07-22 04:25:00,67.1,65.3,29.81,WSW,245,0.0,-999.0,94,0.00,,,0.00,Wunderground v.1.15,2013-07-22 08:25:00,
2013-07-22 04:31:00,67.2,65.4,29.81,WSW,245,0.0,-999.0,94,0.00,,,0.00,Wunderground v.1.15,2013-07-22 08:31:00,
2013-07-22 04:36:00,67.2,65.4,29.81,WSW,245,0.0,-999.0,94,0.00,,,0.00,Wunderground v.1.15,2013-07-22 08:36:00,
2013-07-22 04:42:00,67.3,65.5,29.81,WSW,245,0.0,-999.0,94,0.00,,,0.00,Wunderground v.1.15,2013-07-22 08:42:00,
2013-07-22 04:48:00,67.3,65.5,29.81,WSW,245,0.0,-999.0,94,0.00,,,0.00,Wunderground v.1.15,2013-07-22 08:48:00,
2013-07-22 04:54:00,67.4,65.6,29.81,WSW,245,0.0,-999.0,94,0.00,,,0.00,Wunderground v.1.15,2013-07-22 08:54:00,
2013-07-22 05:00:00,67.5,65.7,29.81,WSW,245,0.0,-999.0,94,0.00,,,0.00,Wunderground v.1.15,2013-07-22 09:00:00,
2013-07-22 05:06:00,67.5,65.7,29.81,WSW,245,0.0,-999.0,94,0.00,,,0.00,Wunderground v.1.15,2013-07-22 09:06:00,
2013-07-22 05:12:00,67.6,65.8,29.81,WSW,245,0.0,-999.0,94,0.00,,,0.00,Wunderground v.1.15,2013-07-22 09:12:00,
2013-07-22 05:18:00,67.6,65.8,29.81,WSW,245,0.0,-999.0,94,0.00,,,0.00,Wunderground v.1.15,2013-07-22 09:18:00,
2013-07-22 05:23:00,67.5,65.7,29.81,WSW,245,0.0,-999.0,94,0.00,,,0.00,Wunderground v.1.15,2013-07-22 09:23:00,
2013-07-22 05:29:00,67.4,65.6,29.81,WSW,245,0.0,-999.0,94,0.00,,,0.00,Wunderground v.1.15,2013-07-22 09:29:00,
2013-07-22 05:35:00,67.5,65.7,29.81,WSW,245,0.0,-999.0,94,0.00,,,0.00,Wunderground v.1.15,2013-07-22 09:35:00,
2013-07-22 05:41:00,67.5,65.7,29.81,WSW,245,0.0,-999.0,94,0.00,,,0.00,Wunderground v.1.15,2013-07-22 09:41:00,
2013-07-22 05:47:00,67.5,65.7,29.81,WSW,245,0.0,-999.0,94,0.00,,,0.00,Wunderground v.1.15,2013-07-22 09:47:00,
2013-07-22 05:53:00,67.5,65.7,29.81,WSW,245,0.0,-999.0,94,0.00,,,0.00,Wunderground v.1.15,2013-07-22 09:53:00,
2013-07-22 05:59:00,67.5,65.7,29.81,WSW,245,0.0,-999.0,94,0.00,,,0.00,Wunderground v.1.15,2013-07-22 09:59:00,
2013-07-22 06:05:00,67.4,65.6,29.82,WSW,245,0.0,-999.0,94,0.00,,,0.00,Wunderground v.1.15,2013-07-22 10:05:00,
2013-07-22 06:10:00,67.4,65.6,29.82,WSW,245,0.0,-999.0,94,0.00,,,0.00,Wunderground v.1.15,2013-07-22 10:10:00,
2013-07-22 06:16:00,67.4,65.6,29.82,WSW,245,0.0,-999.0,94,0.00,,,0.00,Wunderground v.1.15,2013-07-22 10:16:00,
2013-07-22 06:22:00,67.4,65.6,29.82,WSW,245,0.0,-999.0,94,0.00,,,0.00,Wunderground v.1.15,2013-07-22 10:22:00,
2013-07-22 06:28:00,67.4,65.6,29.82,WSW,245,0.0,-999.0,94,0.00,,,0.00,Wunderground v.1.15,2013-07-22 10:28:00,
2013-07-22 06:33:00,67.4,65.6,29.82,WSW,245,0.0,-999.0,94,0.00,,,0.00,Wunderground v.1.15,2013-07-22 10:33:00,
2013-07-22 06:39:00,67.4,65.6,29.82,WSW,245,0.0,-999.0,94,0.00,,,0.00,Wunderground v.1.15,2013-07-22 10:39:00,
2013-07-22 06:45:00,67.5,65.7,29.81,WSW,245,0.0,-999.0,94,0.00,,,0.00,Wunderground v.1.15,2013-07-22 10:45:00,
2013-07-22 06:51:00,67.5,65.7,29.81,WSW,245,0.0,-999.0,94,0.00,,,0.00,Wunderground v.1.15,2013-07-22 10:51:00,
2013-07-22 06:57:00,67.5,65.7,29.81,NNW,331,0.0,-999.0,94,0.00,,,0.00,Wunderground v.1.15,2013-07-22 10:57:00,
2013-07-22 07:03:00,67.5,65.7,29.81,NNW,331,0.0,-999.0,94,0.00,,,0.00,Wunderground v.1.15,2013-07-22 11:03:00,
2013-07-22 07:09:00,67.6,65.8,29.81,NNW,331,0.0,-999.0,94,0.00,,,0.00,Wunderground v.1.15,2013-07-22 11:09:00,
2013-07-22 07:14:00,67.6,65.8,29.81,NNW,331,0.0,-999.0,94,0.00,,,0.00,Wunderground v.1.15,2013-07-22 11:14:00,
2013-07-22 07:20:00,67.7,65.9,29.81,NNW,331,0.0,-999.0,94,0.00,,,0.00,Wunderground v.1.15,2013-07-22 11:20:00,
2013-07-22 07:26:00,67.9,66.1,29.81,NNW,331,0.0,-999.0,94,0.00,,,0.00,Wunderground v.1.15,2013-07-22 11:26:00,
2013-07-22 07:32:00,67.9,66.1,29.81,NNW,331,0.0,-999.0,94,0.00,,,0.00,Wunderground v.1.15,2013-07-22 11:32:00,
2013-07-22 07:38:00,68.1,66.3,29.80,NNW,331,0.0,-999.0,94,0.00,,,0.00,Wunderground v.1.15,2013-07-22 11:38:00,
2013-07-22 07:44:00,68.2,66.4,29.80,NNW,331,0.0,-999.0,94,0.00,,,0.00,Wunderground v.1.15,2013-07-22 11:44:00,
2013-07-22 07:50:00,68.4,66.6,29.80,NNW,331,0.0,-999.0,94,0.00,,,0.00,Wunderground v.1.15,2013-07-22 11:50:00,
2013-07-22 07:55:00,68.5,66.7,29.81,NNW,331,0.0,-999.0,94,0.00,,,0.00,Wunderground v.1.15,2013-07-22 11:55:00,
2013-07-22 08:01:00,68.5,66.7,29.81,NNW,331,0.0,-999.0,94,0.00,,,0.00,Wunderground v.1.15,2013-07-22 12:01:00,
2013-07-22 08:07:00,68.6,66.8,29.81,NNW,331,0.0,-999.0,94,0.00,,,0.00,Wunderground v.1.15,2013-07-22 12:07:00,
2013-07-22 08:13:00,68.8,67.0,29.81,NNW,331,0.0,-999.0,94,0.00,,,0.00,Wunderground v.1.15,2013-07-22 12:13:00,
2013-07-22 08:19:00,68.9,67.1,29.81,NNW,331,0.0,-999.0,94,0.00,,,0.00,Wunderground v.1.15,2013-07-22 12:19:00,
2013-07-22 08:25:00,69.0,67.2,29.81,NNW,331,0.0,-999.0,94,0.00,,,0.00,Wunderground v.1.15,2013-07-22 12:25:00,
2013-07-22 08:31:00,69.1,67.3,29.81,NNW,331,0.0,-999.0,94,0.00,,,0.00,Wunderground v.1.15,2013-07-22 12:31:00,
2013-07-22 08:36:00,69.3,67.5,29.81,NNW,331,0.0,-999.0,94,0.00,,,0.00,Wunderground v.1.15,2013-07-22 12:36:00,
2013-07-22 08:42:00,69.4,67.6,29.81,NNW,331,0.0,-999.0,94,0.00,,,0.00,Wunderground v.1.15,2013-07-22 12:42:00,
2013-07-22 08:48:00,69.4,67.6,29.81,NNW,331,0.0,-999.0,94,0.00,,,0.00,Wunderground v.1.15,2013-07-22 12:48:00,
2013-07-22 08:54:00,69.6,67.8,29.81,NNW,331,0.0,-999.0,94,0.00,,,0.00,Wunderground v.1.15,2013-07-22 12:54:00,
2013-07-22 09:00:00,69.7,67.9,29.81,NNW,331,0.0,-999.0,94,0.00,,,0.00,Wunderground v.1.15,2013-07-22 13:00:00,
2013-07-22 09:06:00,69.8,68.0,29.81,NNW,331,0.0,-999.0,94,0.00,,,0.00,Wunderground v.1.15,2013-07-22 13:06:00,
2013-07-22 09:12:00,69.9,68.1,29.80,NNW,331,0.0,-999.0,94,0.00,,,0.00,Wunderground v.1.15,2013-07-22 13:12:00,
2013-07-22 09:17:00,70.1,68.3,29.80,NNW,331,0.0,-999.0,94,0.00,,,0.00,Wunderground v.1.15,2013-07-22 13:17:00,
2013-07-22 09:23:00,70.4,68.6,29.81,NNW,331,0.0,-999.0,94,0.00,,,0.00,Wunderground v.1.15,2013-07-22 13:23:00,
2013-07-22 09:29:00,70.6,68.8,29.81,WSW,257,0.0,-999.0,94,0.00,,,0.00,Wunderground v.1.15,2013-07-22 13:29:00,
2013-07-22 09:35:00,70.7,68.9,29.81,WSW,257,0.0,-999.0,94,0.00,,,0.00,Wunderground v.1.15,2013-07-22 13:35:00,
2013-07-22 09:41:00,70.9,69.1,29.80,WSW,251,0.0,-999.0,94,0.00,,,0.00,Wunderground v.1.15,2013-07-22 13:41:00,
2013-07-22 09:47:00,71.0,69.2,29.80,WSW,250,0.0,-999.0,94,0.00,,,0.00,Wunderground v.1.15,2013-07-22 13:47:00,
2013-07-22 09:53:00,71.1,69.0,29.80,WSW,250,0.0,-999.0,93,0.00,,,0.00,Wunderground v.1.15,2013-07-22 13:53:00,
2013-07-22 09:59:00,71.2,69.1,29.80,WSW,250,0.0,-999.0,93,0.00,,,0.00,Wunderground v.1.15,2013-07-22 13:59:00,
2013-07-22 10:12:00,71.5,69.4,29.80,WSW,250,0.0,-999.0,93,0.00,,,0.00,Wunderground v.1.15,2013-07-22 14:12:00,
2013-07-22 10:18:00,71.6,69.5,29.80,WSW,250,0.0,-999.0,93,0.00,,,0.00,Wunderground v.1.15,2013-07-22 14:18:00,
2013-07-22 10:23:00,71.6,69.5,29.80,WSW,250,0.0,-999.0,93,0.00,,,0.00,Wunderground v.1.15,2013-07-22 14:23:00,
2013-07-22 10:29:00,71.9,69.8,29.81,WSW,250,0.0,-999.0,93,0.00,,,0.00,Wunderground v.1.15,2013-07-22 14:29:00,
2013-07-22 10:35:00,72.1,70.0,29.81,WSW,250,0.0,-999.0,93,0.00,,,0.00,Wunderground v.1.15,2013-07-22 14:35:00,
2013-07-22 10:41:00,72.3,70.2,29.80,WSW,250,0.0,-999.0,93,0.00,,,0.00,Wunderground v.1.15,2013-07-22 14:41:00,
2013-07-22 10:47:00,72.5,70.0,29.80,WSW,250,0.0,-999.0,92,0.00,,,0.00,Wunderground v.1.15,2013-07-22 14:47:00,
2013-07-22 10:53:00,72.8,70.3,29.80,WSW,250,0.0,-999.0,92,0.00,,,0.00,Wunderground v.1.15,2013-07-22 14:53:00,
2013-07-22 10:58:00,73.0,70.5,29.80,WSW,250,0.0,-999.0,92,0.00,,,0.00,Wunderground v.1.15,2013-07-22 14:58:00,
2013-07-22 11:04:00,73.2,70.7,29.80,WSW,250,0.0,-999.0,92,0.00,,,0.00,Wunderground v.1.15,2013-07-22 15:04:00,
2013-07-22 11:10:00,73.5,71.0,29.80,WSW,250,0.0,-999.0,92,0.00,,,0.00,Wunderground v.1.15,2013-07-22 15:10:00,
2013-07-22 11:16:00,73.6,71.1,29.80,WSW,250,0.0,-999.0,92,0.00,,,0.00,Wunderground v.1.15,2013-07-22 15:16:00,
2013-07-22 11:27:00,74.0,71.5,29.80,WSW,250,0.0,-999.0,92,0.00,,,0.00,Wunderground v.1.15,2013-07-22 15:27:00,
2013-07-22 11:33:00,74.2,71.7,29.80,WSW,250,0.0,-999.0,92,0.00,,,0.00,Wunderground v.1.15,2013-07-22 15:33:00,
2013-07-22 11:38:00,74.6,72.1,29.80,WSW,250,0.0,-999.0,92,0.00,,,0.00,Wunderground v.1.15,2013-07-22 15:38:00,
2013-07-22 13:02:00,74.3,72.1,29.77,West,267,0.0,-999.0,93,0.07,,,0.04,Wunderground v.1.15,2013-07-22 17:02:00,
2013-07-22 13:08:00,74.2,72.0,29.77,West,267,0.0,-999.0,93,0.05,,,0.04,Wunderground v.1.15,2013-07-22 17:08:00,
2013-07-22 13:13:00,74.3,72.1,29.77,West,267,0.0,-999.0,93,0.04,,,0.04,Wunderground v.1.15,2013-07-22 17:13:00,
2013-07-22 13:19:00,74.3,72.1,29.77,West,267,0.0,-999.0,93,0.00,,,0.04,Wunderground v.1.15,2013-07-22 17:19:00,
2013-07-22 13:25:00,74.3,72.1,29.77,West,267,0.0,-999.0,93,0.00,,,0.04,Wunderground v.1.15,2013-07-22 17:25:00,
2013-07-22 13:31:00,74.2,72.4,29.77,West,267,0.0,-999.0,94,0.00,,,0.05,Wunderground v.1.15,2013-07-22 17:31:00,
2013-07-22 13:37:00,74.2,72.4,29.76,West,267,0.0,-999.0,94,0.13,,,0.06,Wunderground v.1.15,2013-07-22 17:37:00,
2013-07-22 13:43:00,74.2,72.0,29.76,West,267,0.0,-999.0,93,0.07,,,0.06,Wunderground v.1.15,2013-07-22 17:43:00,
2013-07-22 13:48:00,74.2,72.4,29.76,West,268,0.0,-999.0,94,0.21,,,0.08,Wunderground v.1.15,2013-07-22 17:48:00,
2013-07-22 13:54:00,74.2,72.4,29.75,West,268,0.0,-999.0,94,0.35,,,0.10,Wunderground v.1.15,2013-07-22 17:54:00,
2013-07-22 18:17:00,73.6,71.8,29.69,South,171,0.0,-999.0,94,0.00,,,0.66,Wunderground v.1.15,2013-07-22 22:17:00,
2013-07-22 18:18:00,73.6,71.8,29.69,South,171,0.0,-999.0,94,0.00,,,0.66,Wunderground v.1.15,2013-07-22 22:18:00,
2013-07-22 18:20:00,73.6,71.8,29.69,South,171,0.0,-999.0,94,0.00,,,0.66,Wunderground v.1.15,2013-07-22 22:20:00,
2013-07-22 18:22:00,73.6,71.8,29.69,South,171,0.0,-999.0,94,0.00,,,0.66,Wunderground v.1.15,2013-07-22 22:22:00,
2013-07-22 18:25:00,73.5,71.7,29.69,South,171,0.0,-999.0,94,0.00,,,0.66,Wunderground v.1.15,2013-07-22 22:25:00,
2013-07-22 18:31:00,73.4,71.3,29.69,South,171,1.0,-999.0,93,0.00,,,0.66,Wunderground v.1.15,2013-07-22 22:31:00,
2013-07-22 18:37:00,73.5,71.7,29.69,South,171,1.0,-999.0,94,0.00,,,0.66,Wunderground v.1.15,2013-07-22 22:37:00,
2013-07-22 18:43:00,73.5,71.4,29.68,South,171,1.0,-999.0,93,0.00,,,0.66,Wunderground v.1.15,2013-07-22 22:43:00,
2013-07-22 18:49:00,73.6,71.8,29.69,South,171,1.0,-999.0,94,0.00,,,0.66,Wunderground v.1.15,2013-07-22 22:49:00,
2013-07-22 18:54:00,73.7,71.9,29.68,South,171,0.0,-999.0,94,0.00,,,0.66,Wunderground v.1.15,2013-07-22 22:54:00,
2013-07-22 19:00:00,73.7,71.9,29.68,South,171,0.0,-999.0,94,0.00,,,0.66,Wunderground v.1.15,2013-07-22 23:00:00,
2013-07-22 19:05:00,73.7,71.9,29.69,South,171,0.0,-999.0,94,0.00,,,0.66,Wunderground v.1.15,2013-07-22 23:05:00,
2013-07-22 19:11:00,73.7,71.9,29.68,South,171,0.0,-999.0,94,0.00,,,0.66,Wunderground v.1.15,2013-07-22 23:11:00,
2013-07-22 19:17:00,73.4,71.3,29.68,South,171,0.0,-999.0,93,0.00,,,0.66,Wunderground v.1.15,2013-07-22 23:17:00,
2013-07-22 19:23:00,73.1,71.0,29.68,South,171,0.0,-999.0,93,0.00,,,0.66,Wunderground v.1.15,2013-07-22 23:23:00,
2013-07-22 19:29:00,73.0,70.9,29.68,South,171,0.0,-999.0,93,0.00,,,0.66,Wunderground v.1.15,2013-07-22 23:29:00,
2013-07-22 19:35:00,72.9,70.8,29.68,South,171,0.0,-999.0,93,0.00,,,0.66,Wunderground v.1.15,2013-07-22 23:35:00,
2013-07-22 19:41:00,72.9,70.8,29.69,South,171,0.0,-999.0,93,0.00,,,0.66,Wunderground v.1.15,2013-07-22 23:41:00,
2013-07-22 19:47:00,72.5,70.0,29.69,South,171,0.0,-999.0,92,0.00,,,0.66,Wunderground v.1.15,2013-07-22 23:47:00,
2013-07-22 19:53:00,72.5,70.0,29.69,South,171,0.0,-999.0,92,0.00,,,0.66,Wunderground v.1.15,2013-07-22 23:53:00,
2013-07-22 19:59:00,72.4,69.9,29.69,South,171,0.0,-999.0,92,0.00,,,0.66,Wunderground v.1.15,2013-07-22 23:59:00,
2013-07-22 20:05:00,72.4,69.9,29.69,South,171,0.0,-999.0,92,0.00,,,0.66,Wunderground v.1.15,2013-07-23 00:05:00,
2013-07-22 20:10:00,72.4,69.9,29.69,South,171,0.0,-999.0,92,0.00,,,0.66,Wunderground v.1.15,2013-07-23 00:10:00,
2013-07-22 20:16:00,72.2,69.7,29.69,South,171,0.0,-999.0,92,0.00,,,0.66,Wunderground v.1.15,2013-07-23 00:16:00,
2013-07-22 20:22:00,72.1,69.6,29.68,South,171,0.0,-999.0,92,0.00,,,0.66,Wunderground v.1.15,2013-07-23 00:22:00,
2013-07-22 20:28:00,71.9,69.4,29.69,South,171,0.0,-999.0,92,0.00,,,0.66,Wunderground v.1.15,2013-07-23 00:28:00,
2013-07-22 20:34:00,71.7,69.3,29.69,South,171,0.0,-999.0,92,0.00,,,0.66,Wunderground v.1.15,2013-07-23 00:34:00,
2013-07-22 20:40:00,71.6,69.2,29.69,South,171,0.0,-999.0,92,0.00,,,0.66,Wunderground v.1.15,2013-07-23 00:40:00,
2013-07-22 20:46:00,71.4,69.0,29.68,South,171,0.0,-999.0,92,0.00,,,0.66,Wunderground v.1.15,2013-07-23 00:46:00,
2013-07-22 20:52:00,71.3,68.9,29.69,South,171,0.0,-999.0,92,0.00,,,0.66,Wunderground v.1.15,2013-07-23 00:52:00,
2013-07-22 20:57:00,71.2,68.8,29.69,South,171,0.0,-999.0,92,0.00,,,0.66,Wunderground v.1.15,2013-07-23 00:57:00,
2013-07-22 21:03:00,71.1,68.7,29.69,South,173,0.0,-999.0,92,0.00,,,0.66,Wunderground v.1.15,2013-07-23 01:03:00,
2013-07-22 21:09:00,71.0,68.6,29.69,South,173,0.0,-999.0,92,0.00,,,0.66,Wunderground v.1.15,2013-07-23 01:09:00,
2013-07-22 21:15:00,70.8,68.7,29.69,South,173,0.0,-999.0,93,0.00,,,0.66,Wunderground v.1.15,2013-07-23 01:15:00,
2013-07-22 21:21:00,70.6,68.5,29.69,South,173,0.0,-999.0,93,0.00,,,0.66,Wunderground v.1.15,2013-07-23 01:21:00,
2013-07-22 21:27:00,70.4,68.3,29.69,South,173,0.0,-999.0,93,0.00,,,0.66,Wunderground v.1.15,2013-07-23 01:27:00,
2013-07-22 21:33:00,70.3,68.2,29.69,South,173,0.0,-999.0,93,0.00,,,0.66,Wunderground v.1.15,2013-07-23 01:33:00,
2013-07-22 21:39:00,70.1,68.0,29.69,South,173,0.0,-999.0,93,0.00,,,0.66,Wunderground v.1.15,2013-07-23 01:39:00,
2013-07-22 21:45:00,69.9,67.8,29.69,South,173,0.0,-999.0,93,0.00,,,0.66,Wunderground v.1.15,2013-07-23 01:45:00,
2013-07-22 21:51:00,69.7,67.6,29.69,South,173,0.0,-999.0,93,0.00,,,0.66,Wunderground v.1.15,2013-07-23 01:51:00,
2013-07-22 21:56:00,69.6,67.5,29.69,South,173,0.0,-999.0,93,0.00,,,0.66,Wunderground v.1.15,2013-07-23 01:56:00,
2013-07-22 22:02:00,69.4,67.3,29.69,South,173,0.0,-999.0,93,0.00,,,0.66,Wunderground v.1.15,2013-07-23 02:02:00,
2013-07-22 22:08:00,69.3,67.5,29.69,South,173,0.0,-999.0,94,0.00,,,0.66,Wunderground v.1.15,2013-07-23 02:08:00,
2013-07-22 22:14:00,69.2,67.1,29.69,South,173,0.0,-999.0,93,0.00,,,0.66,Wunderground v.1.15,2013-07-23 02:14:00,
2013-07-22 22:20:00,69.0,67.2,29.69,South,173,0.0,-999.0,94,0.00,,,0.66,Wunderground v.1.15,2013-07-23 02:20:00,
2013-07-22 22:26:00,68.9,67.1,29.69,South,173,0.0,-999.0,94,0.00,,,0.66,Wunderground v.1.15,2013-07-23 02:26:00,
2013-07-22 22:32:00,68.8,67.0,29.69,South,173,0.0,-999.0,94,0.00,,,0.66,Wunderground v.1.15,2013-07-23 02:32:00,
2013-07-22 22:37:00,68.6,66.8,29.69,South,173,0.0,-999.0,94,0.00,,,0.66,Wunderground v.1.15,2013-07-23 02:37:00,
2013-07-22 22:43:00,68.3,66.5,29.69,South,173,0.0,-999.0,94,0.00,,,0.66,Wunderground v.1.15,2013-07-23 02:43:00,
2013-07-22 22:49:00,68.1,66.3,29.69,South,173,0.0,-999.0,94,0.00,,,0.66,Wunderground v.1.15,2013-07-23 02:49:00,
2013-07-22 22:55:00,67.9,66.1,29.69,South,173,0.0,-999.0,94,0.00,,,0.66,Wunderground v.1.15,2013-07-23 02:55:00,
2013-07-22 23:01:00,67.9,66.1,29.69,South,173,0.0,-999.0,94,0.00,,,0.66,Wunderground v.1.15,2013-07-23 03:01:00,
2013-07-22 23:07:00,67.8,66.0,29.70,South,173,0.0,-999.0,94,0.00,,,0.66,Wunderground v.1.15,2013-07-23 03:07:00,
2013-07-22 23:13:00,67.9,66.1,29.70,South,173,0.0,-999.0,94,0.00,,,0.66,Wunderground v.1.15,2013-07-23 03:13:00,
2013-07-22 23:18:00,68.1,66.3,29.71,South,173,0.0,-999.0,94,0.00,,,0.66,Wunderground v.1.15,2013-07-23 03:18:00,
2013-07-22 23:24:00,68.1,66.3,29.71,South,173,0.0,-999.0,94,0.00,,,0.66,Wunderground v.1.15,2013-07-23 03:24:00,
2013-07-22 23:30:00,68.1,66.3,29.71,South,173,0.0,-999.0,94,0.00,,,0.66,Wunderground v.1.15,2013-07-23 03:30:00,
2013-07-22 23:36:00,68.2,66.4,29.71,South,173,0.0,-999.0,94,0.00,,,0.66,Wunderground v.1.15,2013-07-23 03:36:00,
2013-07-22 23:42:00,68.3,66.5,29.71,South,173,0.0,-999.0,94,0.00,,,0.66,Wunderground v.1.15,2013-07-23 03:42:00,
2013-07-22 23:48:00,68.2,66.4,29.71,NW,311,0.0,-999.0,94,0.00,,,0.66,Wunderground v.1.15,2013-07-23 03:48:00,
2013-07-22 23:53:00,68.1,66.3,29.71,NW,311,0.0,-999.0,94,0.00,,,0.66,Wunderground v.1.15,2013-07-23 03:53:00,
2013-07-22 23:59:00,67.8,66.0,29.71,NW,315,0.0,-999.0,94,0.00,,,0.66,Wunderground v.1.15,2013-07-23 03:59:00,